Time;durP1;ratioP1;P1;durP2;ratioP2;P2;SDS_P1;SDS_P2;PMS_P1;PMS_P2;Temp;Humidity;BMP_temperature;BMP_pressure;BME280_temperature;BME280_humidity;BME280_pressure;Samples;Min_cycle;Max_cycle;Signal;HPM_P1;HPM_P2
2024/01/01 00:01:02;;;;;;;;;;;15.90;68.50;;;;;;7325862;19;9541;-58
2024/01/01 00:03:36;;;;;;;;;;;16.00;68.50;;;;;;7327492;19;9375;-58
2024/01/01 00:06:06;;;;;;;;;;;16.00;68.40;;;;;;7327796;19;10275;-57
2024/01/01 00:08:35;;;;;;;;;;;16.10;68.40;;;;;;7328575;19;9196;-58
2024/01/01 00:11:04;;;;;;;;;;;16.10;68.30;;;;;;7327772;19;9576;-57
2024/01/01 00:13:38;;;;;;;;;;;16.20;68.20;;;;;;7328657;19;9254;-57
2024/01/01 00:16:08;;;;;;;;;;;16.20;68.10;;;;;;7327684;19;9298;-58
2024/01/01 00:18:39;;;;;;;;;;;16.30;68.10;;;;;;7327968;19;9396;-58
2024/01/01 00:21:08;;;;;;;;;;;16.40;68.00;;;;;;7327562;19;9457;-58
2024/01/01 00:23:37;;;;;;;;;;;16.40;67.90;;;;;;7327638;19;9263;-58
2024/01/01 00:26:07;;;;;;;;;;;16.50;67.80;;;;;;7327852;19;9480;-58
2024/01/01 00:28:36;;;;;;;;;;;16.60;67.80;;;;;;7327162;19;9503;-58
2024/01/01 00:31:05;;;;;;;;;;;16.60;67.60;;;;;;7328047;19;9462;-57
2024/01/01 00:33:34;;;;;;;;;;;16.60;67.60;;;;;;7327213;19;9591;-58
2024/01/01 00:36:05;;;;;;;;;;;16.70;67.50;;;;;;7327503;19;8970;-57
2024/01/01 00:38:34;;;;;;;;;;;16.70;67.40;;;;;;7326738;19;9264;-57
2024/01/01 00:41:03;;;;;;;;;;;16.70;67.40;;;;;;7327327;19;9223;-57
2024/01/01 00:43:32;;;;;;;;;;;16.70;67.30;;;;;;7326717;19;10477;-58
2024/01/01 00:46:02;;;;;;;;;;;16.80;67.30;;;;;;7325205;19;9194;-57
2024/01/01 00:48:31;;;;;;;;;;;16.80;67.40;;;;;;7325947;19;9522;-57
2024/01/01 00:51:22;;;;;;;;;;;16.80;67.30;;;;;;7325358;19;9363;-58
2024/01/01 00:53:52;;;;;;;;;;;16.70;67.20;;;;;;7326949;19;9529;-57
2024/01/01 00:56:21;;;;;;;;;;;16.70;67.20;;;;;;7326432;19;9635;-57
2024/01/01 00:58:50;;;;;;;;;;;16.70;67.30;;;;;;7327237;19;10612;-58
2024/01/01 01:01:19;;;;;;;;;;;16.70;67.20;;;;;;7326915;19;9541;-57
2024/01/01 01:03:47;;;;;;;;;;;16.70;67.30;;;;;;7326329;19;9652;-57
2024/01/01 01:06:17;;;;;;;;;;;16.70;67.40;;;;;;7326722;19;9493;-58
2024/01/01 01:08:49;;;;;;;;;;;16.60;67.30;;;;;;7327260;19;9541;-57
2024/01/01 01:11:18;;;;;;;;;;;16.60;67.40;;;;;;7325293;19;9878;-57
2024/01/01 01:13:48;;;;;;;;;;;16.50;67.40;;;;;;7326643;19;9177;-58
2024/01/01 01:16:17;;;;;;;;;;;16.50;67.40;;;;;;7326564;19;10708;-57
2024/01/01 01:18:46;;;;;;;;;;;16.50;67.50;;;;;;7325884;19;9392;-57
2024/01/01 01:21:15;;;;;;;;;;;16.50;67.60;;;;;;7326695;19;9188;-57
2024/01/01 01:23:45;;;;;;;;;;;16.40;67.60;;;;;;7325436;19;9206;-58
2024/01/01 01:26:17;;;;;;;;;;;16.30;67.60;;;;;;7326024;19;9587;-58
2024/01/01 01:28:46;;;;;;;;;;;16.30;67.70;;;;;;7325666;19;9556;-58
2024/01/01 01:31:15;;;;;;;;;;;16.30;67.70;;;;;;7326378;19;9681;-58
2024/01/01 01:33:44;;;;;;;;;;;16.30;67.90;;;;;;7324620;19;9244;-57
2024/01/01 01:36:14;;;;;;;;;;;16.20;67.80;;;;;;7326250;19;9640;-58
2024/01/01 01:38:43;;;;;;;;;;;16.20;67.80;;;;;;7325588;19;9476;-58
2024/01/01 01:41:12;;;;;;;;;;;16.20;68.00;;;;;;7326051;19;9620;-57
2024/01/01 01:43:43;;;;;;;;;;;16.10;68.00;;;;;;7325290;19;9600;-57
2024/01/01 01:46:14;;;;;;;;;;;16.10;68.00;;;;;;7325299;19;10567;-58
2024/01/01 01:48:43;;;;;;;;;;;16.10;68.10;;;;;;7325898;19;9319;-57
2024/01/01 01:51:12;;;;;;;;;;;16.10;68.10;;;;;;7326449;19;10442;-58
2024/01/01 01:53:42;;;;;;;;;;;16.00;68.10;;;;;;7325568;19;9267;-58
2024/01/01 01:56:14;;;;;;;;;;;16.00;68.20;;;;;;7323214;19;9360;-58
2024/01/01 01:58:46;;;;;;;;;;;16.00;68.20;;;;;;7324925;19;9427;-57
2024/01/01 02:01:16;;;;;;;;;;;16.00;68.30;;;;;;7324229;19;9438;-57
2024/01/01 02:03:46;;;;;;;;;;;15.90;68.20;;;;;;7325213;19;9462;-58
2024/01/01 02:06:15;;;;;;;;;;;15.90;68.30;;;;;;7323320;19;9274;-57
2024/01/01 02:08:45;;;;;;;;;;;15.90;68.30;;;;;;7325516;19;9478;-57
2024/01/01 02:11:14;;;;;;;;;;;15.90;68.30;;;;;;7324321;19;9402;-58
2024/01/01 02:13:45;;;;;;;;;;;16.00;68.40;;;;;;7325213;19;9530;-58
2024/01/01 02:16:15;;;;;;;;;;;16.00;68.30;;;;;;7324606;19;9264;-58
2024/01/01 02:18:43;;;;;;;;;;;16.00;68.20;;;;;;7324339;19;9568;-58
2024/01/01 02:21:12;;;;;;;;;;;16.10;68.20;;;;;;7325187;19;9255;-58
2024/01/01 02:23:44;;;;;;;;;;;16.20;68.20;;;;;;7324461;19;9467;-58
2024/01/01 02:26:18;;;;;;;;;;;16.20;68.00;;;;;;7321162;19;9481;-58
2024/01/01 02:28:46;;;;;;;;;;;16.30;68.00;;;;;;7324090;19;9788;-58
2024/01/01 02:31:15;;;;;;;;;;;16.30;67.80;;;;;;7324157;19;9727;-58
2024/01/01 02:33:44;;;;;;;;;;;16.40;67.70;;;;;;7324425;19;9448;-58
2024/01/01 02:36:13;;;;;;;;;;;16.50;67.80;;;;;;7324835;19;9497;-58
2024/01/01 02:38:45;;;;;;;;;;;16.50;67.80;;;;;;7324857;19;9277;-58
2024/01/01 02:41:14;;;;;;;;;;;16.60;67.60;;;;;;7324122;19;9360;-58
2024/01/01 02:43:43;;;;;;;;;;;16.60;67.40;;;;;;7323580;19;9458;-58
2024/01/01 02:46:12;;;;;;;;;;;16.70;67.40;;;;;;7323727;19;9559;-58
2024/01/01 02:48:41;;;;;;;;;;;16.70;67.30;;;;;;7324075;19;9591;-58
2024/01/01 02:51:09;;;;;;;;;;;16.70;67.90;;;;;;7324097;19;9185;-58
2024/01/01 02:53:39;;;;;;;;;;;16.80;67.30;;;;;;7323896;19;9398;-58
2024/01/01 02:56:18;;;;;;;;;;;16.80;67.20;;;;;;7324259;19;9691;-58
2024/01/01 02:58:47;;;;;;;;;;;16.80;67.20;;;;;;7323860;19;9397;-58
2024/01/01 03:01:16;;;;;;;;;;;16.80;67.10;;;;;;7324826;19;9390;-58
2024/01/01 03:03:45;;;;;;;;;;;16.70;67.10;;;;;;7322978;19;9356;-58
2024/01/01 03:06:14;;;;;;;;;;;16.70;67.10;;;;;;7324076;19;9662;-58
2024/01/01 03:08:43;;;;;;;;;;;16.70;67.10;;;;;;7320953;19;9168;-58
2024/01/01 03:11:16;;;;;;;;;;;16.70;67.10;;;;;;7323896;19;9464;-58
2024/01/01 03:13:46;;;;;;;;;;;16.70;67.10;;;;;;7323055;19;9600;-58
2024/01/01 03:16:17;;;;;;;;;;;16.70;67.10;;;;;;7323626;19;9679;-60
2024/01/01 03:18:45;;;;;;;;;;;16.70;67.20;;;;;;7323469;19;9134;-57
2024/01/01 03:21:15;;;;;;;;;;;16.60;67.10;;;;;;7323041;19;9562;-57
2024/01/01 03:23:45;;;;;;;;;;;16.60;67.20;;;;;;7323469;19;9473;-58
2024/01/01 03:26:17;;;;;;;;;;;16.50;67.20;;;;;;7323599;19;9510;-58
2024/01/01 03:28:46;;;;;;;;;;;16.50;67.90;;;;;;7322952;19;9242;-57
2024/01/01 03:31:15;;;;;;;;;;;16.50;67.40;;;;;;7322486;19;9398;-57
2024/01/01 03:33:45;;;;;;;;;;;16.40;67.40;;;;;;7323429;19;9469;-58
2024/01/01 03:36:14;;;;;;;;;;;16.30;67.40;;;;;;7321318;19;10686;-58
2024/01/01 03:38:43;;;;;;;;;;;16.30;67.40;;;;;;7322552;19;9363;-58
2024/01/01 03:41:12;;;;;;;;;;;16.30;67.60;;;;;;7321956;19;9438;-58
2024/01/01 03:44:04;;;;;;;;;;;16.30;67.60;;;;;;7321548;19;9282;-58
2024/01/01 03:46:33;;;;;;;;;;;16.20;67.70;;;;;;7321952;19;9474;-58
2024/01/01 03:49:22;;;;;;;;;;;16.20;67.70;;;;;;7320795;19;9801;-58
2024/01/01 03:51:52;;;;;;;;;;;16.10;67.80;;;;;;7322456;19;9433;-58
2024/01/01 03:54:21;;;;;;;;;;;16.10;67.80;;;;;;7321930;19;9326;-58
2024/01/01 03:56:50;;;;;;;;;;;16.10;67.90;;;;;;7320952;19;9690;-58
2024/01/01 03:59:21;;;;;;;;;;;16.10;68.00;;;;;;7321625;19;9222;-58
2024/01/01 04:01:50;;;;;;;;;;;16.00;68.00;;;;;;7322478;19;9589;-58
2024/01/01 04:04:19;;;;;;;;;;;16.00;68.10;;;;;;7322224;19;9596;-58
2024/01/01 04:06:48;;;;;;;;;;;16.00;68.00;;;;;;7322448;19;9542;-57
2024/01/01 04:09:17;;;;;;;;;;;15.90;68.10;;;;;;7321789;19;9608;-58
2024/01/01 04:12:07;;;;;;;;;;;15.90;68.10;;;;;;7319184;19;9517;-58
2024/01/01 04:14:39;;;;;;;;;;;15.90;68.20;;;;;;7321778;19;9211;-57
2024/01/01 04:17:08;;;;;;;;;;;15.90;68.20;;;;;;7321018;19;9435;-58
2024/01/01 04:19:37;;;;;;;;;;;15.90;68.20;;;;;;7323597;19;10260;-58
2024/01/01 04:22:06;;;;;;;;;;;15.90;68.20;;;;;;7327633;19;10671;-57
2024/01/01 04:24:35;;;;;;;;;;;15.90;68.20;;;;;;7328461;19;9596;-58
2024/01/01 04:27:04;;;;;;;;;;;15.90;68.10;;;;;;7327758;19;9596;-57
2024/01/01 04:29:33;;;;;;;;;;;16.00;68.10;;;;;;7328698;19;10661;-57
2024/01/01 04:32:06;;;;;;;;;;;16.00;68.10;;;;;;7328869;19;9465;-57
2024/01/01 04:34:35;;;;;;;;;;;16.10;68.00;;;;;;7326830;19;9254;-58
2024/01/01 04:37:05;;;;;;;;;;;16.10;68.50;;;;;;7327674;19;9703;-58
2024/01/01 04:39:33;;;;;;;;;;;16.30;67.90;;;;;;7327331;19;9452;-57
2024/01/01 04:42:03;;;;;;;;;;;16.30;67.80;;;;;;7327365;19;9466;-58
2024/01/01 04:44:32;;;;;;;;;;;16.40;67.70;;;;;;7327455;19;9478;-57
2024/01/01 04:47:02;;;;;;;;;;;16.40;67.70;;;;;;7327472;19;10466;-58
2024/01/01 04:49:33;;;;;;;;;;;16.50;67.60;;;;;;7326841;19;9479;-58
2024/01/01 04:52:02;;;;;;;;;;;16.60;67.50;;;;;;7327679;19;9350;-58
2024/01/01 04:54:32;;;;;;;;;;;16.60;67.50;;;;;;7327095;19;9367;-58
2024/01/01 04:57:01;;;;;;;;;;;16.60;67.40;;;;;;7326963;19;9572;-58
2024/01/01 04:59:30;;;;;;;;;;;16.70;67.30;;;;;;7326745;19;9572;-58
2024/01/01 05:01:59;;;;;;;;;;;16.70;67.20;;;;;;7327482;19;9486;-58
2024/01/01 05:04:28;;;;;;;;;;;16.70;67.10;;;;;;7327261;19;9714;-57
2024/01/01 05:06:59;;;;;;;;;;;16.70;67.20;;;;;;7327212;19;9387;-57
2024/01/01 05:09:28;;;;;;;;;;;16.70;67.10;;;;;;7326770;19;9380;-58
2024/01/01 05:11:59;;;;;;;;;;;16.70;67.00;;;;;;7326795;19;9389;-57
2024/01/01 05:14:28;;;;;;;;;;;16.70;67.00;;;;;;7327097;19;9274;-57
2024/01/01 05:16:56;;;;;;;;;;;16.70;67.10;;;;;;7326213;19;10423;-58
2024/01/01 05:19:25;;;;;;;;;;;16.70;67.00;;;;;;7326562;19;9304;-58
2024/01/01 05:21:54;;;;;;;;;;;16.70;67.00;;;;;;7326144;19;9449;-58
2024/01/01 05:24:26;;;;;;;;;;;16.70;67.10;;;;;;7326849;19;9505;-58
2024/01/01 05:26:55;;;;;;;;;;;16.60;67.10;;;;;;7326142;19;9343;-58
2024/01/01 05:29:24;;;;;;;;;;;16.60;67.10;;;;;;7326755;19;9588;-58
2024/01/01 05:31:53;;;;;;;;;;;16.60;67.20;;;;;;7325171;19;10695;-58
2024/01/01 05:34:22;;;;;;;;;;;16.50;67.20;;;;;;7325904;19;9003;-58
2024/01/01 05:36:50;;;;;;;;;;;16.50;67.20;;;;;;7325927;19;9173;-57
2024/01/01 05:39:19;;;;;;;;;;;16.40;67.30;;;;;;7325204;19;9570;-57
2024/01/01 05:41:51;;;;;;;;;;;16.40;67.40;;;;;;7326164;19;9230;-57
2024/01/01 05:44:20;;;;;;;;;;;16.40;67.40;;;;;;7325336;19;9504;-58
2024/01/01 05:46:49;;;;;;;;;;;16.30;67.50;;;;;;7326452;19;9609;-57
2024/01/01 05:49:18;;;;;;;;;;;16.30;67.50;;;;;;7325652;19;9500;-57
2024/01/01 05:51:47;;;;;;;;;;;16.30;67.60;;;;;;7326201;19;9268;-57
2024/01/01 05:54:16;;;;;;;;;;;16.30;68.20;;;;;;7324158;19;9562;-58
2024/01/01 05:56:45;;;;;;;;;;;16.20;67.70;;;;;;7325742;19;9344;-57
2024/01/01 05:59:17;;;;;;;;;;;16.20;67.80;;;;;;7324855;19;9398;-58
2024/01/01 06:01:46;;;;;;;;;;;16.10;67.80;;;;;;7325571;19;9614;-58
2024/01/01 06:04:15;;;;;;;;;;;16.10;67.90;;;;;;7324429;19;9477;-58
2024/01/01 06:06:44;;;;;;;;;;;16.10;67.90;;;;;;7324530;19;9411;-58
2024/01/01 06:09:13;;;;;;;;;;;16.10;68.00;;;;;;7325209;19;10420;-58
2024/01/01 06:11:42;;;;;;;;;;;16.00;68.00;;;;;;7325304;19;9179;-58
2024/01/01 06:14:14;;;;;;;;;;;16.00;68.00;;;;;;7325771;19;9543;-58
2024/01/01 06:16:45;;;;;;;;;;;15.90;68.00;;;;;;7324684;19;9559;-57
2024/01/01 06:19:15;;;;;;;;;;;15.90;68.10;;;;;;7324986;19;9418;-58
2024/01/01 06:21:44;;;;;;;;;;;15.90;68.20;;;;;;7324990;19;10379;-57
2024/01/01 06:24:13;;;;;;;;;;;15.90;68.20;;;;;;7325060;19;9611;-58
2024/01/01 06:26:42;;;;;;;;;;;15.90;68.20;;;;;;7324373;19;9234;-58
2024/01/01 06:29:11;;;;;;;;;;;15.90;68.20;;;;;;7325203;19;9268;-57
2024/01/01 06:31:40;;;;;;;;;;;15.90;68.20;;;;;;7324847;19;10741;-57
2024/01/01 06:34:11;;;;;;;;;;;15.90;68.20;;;;;;7325761;19;9579;-57
2024/01/01 06:37:00;;;;;;;;;;;16.00;68.20;;;;;;7323576;19;9505;-57
2024/01/01 06:39:29;;;;;;;;;;;16.00;68.10;;;;;;7324176;19;9405;-57
2024/01/01 06:41:58;;;;;;;;;;;16.10;68.00;;;;;;7325173;19;9497;-57
2024/01/01 06:44:27;;;;;;;;;;;16.10;67.90;;;;;;7321185;19;9583;-57
2024/01/01 06:46:56;;;;;;;;;;;16.20;67.90;;;;;;7325303;19;9473;-57
2024/01/01 06:49:28;;;;;;;;;;;16.30;67.90;;;;;;7324114;19;9366;-58
2024/01/01 06:51:57;;;;;;;;;;;16.30;67.70;;;;;;7324259;19;9521;-57
2024/01/01 06:54:26;;;;;;;;;;;16.40;67.70;;;;;;7323317;19;9453;-58
2024/01/01 06:56:55;;;;;;;;;;;16.50;67.60;;;;;;7325365;19;9686;-57
2024/01/01 06:59:29;;;;;;;;;;;16.50;67.50;;;;;;7323507;19;10991;-58
2024/01/01 07:02:00;;;;;;;;;;;16.60;67.50;;;;;;7324069;19;9180;-58
2024/01/01 07:04:32;;;;;;;;;;;16.60;67.40;;;;;;7324180;19;9415;-58
2024/01/01 07:07:21;;;;;;;;;;;16.60;67.30;;;;;;7320751;19;9242;-58
2024/01/01 07:10:10;;;;;;;;;;;16.70;67.30;;;;;;7322043;19;9294;-58
2024/01/01 07:12:59;;;;;;;;;;;16.70;67.20;;;;;;7322622;19;9245;-58
2024/01/01 07:15:29;;;;;;;;;;;16.70;67.20;;;;;;7322953;19;9270;-57
2024/01/01 07:17:59;;;;;;;;;;;16.70;67.10;;;;;;7323264;19;9473;-59
2024/01/01 07:20:30;;;;;;;;;;;16.70;67.10;;;;;;7322685;19;9532;-60
2024/01/01 07:23:00;;;;;;;;;;;16.70;67.10;;;;;;7323504;19;9511;-57
2024/01/01 07:25:29;;;;;;;;;;;16.70;67.10;;;;;;7323170;19;9267;-57
2024/01/01 07:27:59;;;;;;;;;;;16.70;67.10;;;;;;7323098;19;9184;-57
2024/01/01 07:30:28;;;;;;;;;;;16.60;67.10;;;;;;7322750;19;9320;-58
2024/01/01 07:32:57;;;;;;;;;;;16.60;67.70;;;;;;7322064;19;9637;-58
2024/01/01 07:35:27;;;;;;;;;;;16.60;67.20;;;;;;7322616;19;9481;-57
2024/01/01 07:38:18;;;;;;;;;;;16.60;67.20;;;;;;7321171;19;9505;-58
2024/01/01 07:40:47;;;;;;;;;;;16.50;67.30;;;;;;7322489;19;9210;-58
2024/01/01 07:43:16;;;;;;;;;;;16.50;67.30;;;;;;7322421;19;9959;-57
2024/01/01 07:45:45;;;;;;;;;;;16.40;67.30;;;;;;7323116;19;9260;-57
2024/01/01 07:48:14;;;;;;;;;;;16.40;67.40;;;;;;7322190;19;9455;-57
2024/01/01 07:50:43;;;;;;;;;;;16.40;67.50;;;;;;7321424;19;9473;-57
2024/01/01 07:53:12;;;;;;;;;;;16.40;67.60;;;;;;7322395;19;9535;-58
2024/01/01 07:55:44;;;;;;;;;;;16.30;67.60;;;;;;7325942;19;9317;-57
2024/01/01 07:58:13;;;;;;;;;;;16.30;67.70;;;;;;7328398;19;9234;-58
2024/01/01 08:01:02;;;;;;;;;;;16.20;67.70;;;;;;7325815;19;9374;-58
2024/01/01 08:03:31;;;;;;;;;;;16.20;67.80;;;;;;7327948;19;9292;-58
2024/01/01 08:06:00;;;;;;;;;;;16.20;67.90;;;;;;7328322;19;9299;-57
2024/01/01 08:08:29;;;;;;;;;;;16.10;67.80;;;;;;7328618;19;9271;-57
2024/01/01 08:11:01;;;;;;;;;;;16.10;67.90;;;;;;7328089;19;9763;-58
2024/01/01 08:13:30;;;;;;;;;;;16.10;68.10;;;;;;7327357;19;9480;-58
2024/01/01 08:15:59;;;;;;;;;;;16.00;68.00;;;;;;7328346;19;9503;-57
2024/01/01 08:18:28;;;;;;;;;;;16.00;68.10;;;;;;7327018;19;9257;-58
2024/01/01 08:20:58;;;;;;;;;;;16.00;68.10;;;;;;7328616;19;10273;-58
2024/01/01 08:23:26;;;;;;;;;;;16.00;68.10;;;;;;7327235;19;9365;-58
2024/01/01 08:25:55;;;;;;;;;;;15.90;68.20;;;;;;7327569;19;9633;-58
2024/01/01 08:28:27;;;;;;;;;;;16.00;68.30;;;;;;7327125;19;9459;-58
2024/01/01 08:30:56;;;;;;;;;;;15.90;68.30;;;;;;7328191;19;9437;-57
2024/01/01 08:33:25;;;;;;;;;;;16.00;68.40;;;;;;7326866;19;9811;-58
2024/01/01 08:35:55;;;;;;;;;;;15.90;68.30;;;;;;7327505;19;9306;-57
2024/01/01 08:38:25;;;;;;;;;;;16.00;68.20;;;;;;7327842;19;9178;-58
2024/01/01 08:40:54;;;;;;;;;;;16.00;68.20;;;;;;7328030;19;9718;-58
2024/01/01 08:43:23;;;;;;;;;;;16.10;68.20;;;;;;7327439;19;9600;-57
2024/01/01 08:45:55;;;;;;;;;;;16.10;68.10;;;;;;7327242;19;9496;-57
2024/01/01 08:48:24;;;;;;;;;;;16.20;68.00;;;;;;7326820;19;9277;-57
2024/01/01 08:50:52;;;;;;;;;;;16.30;68.00;;;;;;7326915;19;10314;-58
2024/01/01 08:53:21;;;;;;;;;;;16.30;67.80;;;;;;7327372;19;9051;-58
2024/01/01 08:55:52;;;;;;;;;;;16.40;67.80;;;;;;7326775;19;10189;-58
2024/01/01 08:58:21;;;;;;;;;;;16.40;67.70;;;;;;7327453;19;9473;-58
2024/01/01 09:01:13;;;;;;;;;;;16.50;68.20;;;;;;7325054;19;9215;-58
2024/01/01 09:03:42;;;;;;;;;;;16.60;67.50;;;;;;7325676;19;9168;-57
2024/01/01 09:06:10;;;;;;;;;;;16.60;67.50;;;;;;7325074;19;9471;-58
2024/01/01 09:08:40;;;;;;;;;;;16.70;67.40;;;;;;7326491;19;9205;-58
2024/01/01 09:11:08;;;;;;;;;;;16.70;67.40;;;;;;7326690;19;9427;-57
2024/01/01 09:13:37;;;;;;;;;;;16.70;67.20;;;;;;7327342;19;9713;-58
2024/01/01 09:16:08;;;;;;;;;;;16.70;67.20;;;;;;7325983;19;9465;-58
2024/01/01 09:18:40;;;;;;;;;;;16.70;67.20;;;;;;7326249;19;9305;-57
2024/01/01 09:21:15;;;;;;;;;;;16.70;67.20;;;;;;7326097;19;9228;-58
2024/01/01 09:23:44;;;;;;;;;;;16.70;67.10;;;;;;7325707;19;10764;-58
2024/01/01 09:26:15;;;;;;;;;;;16.70;67.10;;;;;;7326382;19;9244;-58
2024/01/01 09:28:44;;;;;;;;;;;16.70;67.10;;;;;;7326209;19;9520;-58
2024/01/01 09:31:13;;;;;;;;;;;16.70;67.10;;;;;;7325355;19;10764;-57
2024/01/01 09:33:45;;;;;;;;;;;16.70;67.20;;;;;;7325931;19;9301;-58
2024/01/01 09:36:15;;;;;;;;;;;16.70;67.20;;;;;;7325285;19;9304;-58
2024/01/01 09:38:45;;;;;;;;;;;16.60;67.20;;;;;;7325821;19;9557;-58
2024/01/01 09:41:14;;;;;;;;;;;16.60;67.20;;;;;;7325130;19;9382;-57
2024/01/01 09:43:44;;;;;;;;;;;16.60;67.30;;;;;;7325548;19;9519;-58
2024/01/01 09:46:17;;;;;;;;;;;16.60;67.40;;;;;;7324945;19;9481;-58
2024/01/01 09:48:48;;;;;;;;;;;16.50;67.40;;;;;;7325598;19;9245;-58
2024/01/01 09:51:17;;;;;;;;;;;16.50;67.50;;;;;;7325369;19;9352;-58
2024/01/01 09:53:47;;;;;;;;;;;16.40;67.50;;;;;;7325636;19;9600;-58
2024/01/01 09:56:17;;;;;;;;;;;16.40;67.60;;;;;;7325573;19;9255;-58
2024/01/01 09:58:47;;;;;;;;;;;16.40;67.60;;;;;;7325146;19;9183;-58
2024/01/01 10:01:19;;;;;;;;;;;16.40;67.70;;;;;;7325287;19;9398;-58
2024/01/01 10:04:03;;;;;;;;;;;16.30;67.80;;;;;;7324539;19;9245;-58
2024/01/01 10:06:34;;;;;;;;;;;16.30;67.80;;;;;;7325429;19;9325;-58
2024/01/01 10:09:09;;;;;;;;;;;16.20;67.80;;;;;;7324366;19;9314;-58
2024/01/01 10:11:44;;;;;;;;;;;16.20;68.00;;;;;;7324626;19;9206;-57
2024/01/01 10:14:14;;;;;;;;;;;16.20;68.00;;;;;;7324871;19;9432;-57
2024/01/01 10:16:45;;;;;;;;;;;16.10;68.00;;;;;;7325148;19;9462;-59
2024/01/01 10:19:17;;;;;;;;;;;16.10;68.10;;;;;;7324574;19;9262;-57
2024/01/01 10:21:46;;;;;;;;;;;16.10;68.20;;;;;;7323634;19;9223;-57
2024/01/01 10:24:35;;;;;;;;;;;16.00;68.20;;;;;;7323999;19;10199;-59
2024/01/01 10:27:04;;;;;;;;;;;16.00;68.20;;;;;;7324251;19;9427;-56
2024/01/01 10:29:37;;;;;;;;;;;16.00;68.30;;;;;;7324020;19;9260;-58
2024/01/01 10:32:08;;;;;;;;;;;16.00;68.30;;;;;;7323778;19;9338;-57
2024/01/01 10:35:00;;;;;;;;;;;16.00;68.40;;;;;;7322560;19;9571;-58
2024/01/01 10:37:32;;;;;;;;;;;15.90;68.40;;;;;;7324976;19;9368;-57
2024/01/01 10:40:05;;;;;;;;;;;15.90;68.50;;;;;;7324205;19;9585;-57
2024/01/01 10:42:36;;;;;;;;;;;16.00;68.50;;;;;;7324281;19;9297;-57
2024/01/01 10:45:06;;;;;;;;;;;15.90;68.50;;;;;;7324688;19;9426;-57
2024/01/01 10:47:36;;;;;;;;;;;15.90;68.40;;;;;;7323941;19;9391;-57
2024/01/01 10:50:23;;;;;;;;;;;16.00;68.50;;;;;;7324921;19;9594;-57
2024/01/01 10:53:09;;;;;;;;;;;16.00;68.40;;;;;;7323135;19;9183;-57
2024/01/01 10:56:06;;;;;;;;;;;16.10;68.40;;;;;;7323539;19;9312;-58
2024/01/01 10:58:57;;;;;;;;;;;16.10;68.10;;;;;;7323543;19;9182;-58
2024/01/01 11:01:27;;;;;;;;;;;16.20;68.20;;;;;;7324281;19;10396;-57
2024/01/01 11:03:56;;;;;;;;;;;16.30;68.00;;;;;;7322822;19;9353;-57
2024/01/01 11:06:31;;;;;;;;;;;16.30;68.50;;;;;;7323707;19;9754;-58
2024/01/01 11:09:21;;;;;;;;;;;16.40;67.90;;;;;;7322974;19;9469;-58
2024/01/01 11:11:51;;;;;;;;;;;16.50;67.80;;;;;;7322154;19;9524;-57
2024/01/01 11:14:27;;;;;;;;;;;16.50;67.70;;;;;;7323541;19;9316;-58
2024/01/01 11:16:59;;;;;;;;;;;16.60;67.70;;;;;;7322514;19;9465;-57
2024/01/01 11:19:41;;;;;;;;;;;16.70;67.60;;;;;;7322914;19;10984;-57
2024/01/01 11:22:39;;;;;;;;;;;16.70;67.50;;;;;;7322709;19;9179;-57
2024/01/01 11:25:09;;;;;;;;;;;16.70;67.40;;;;;;7321988;19;9510;-58
2024/01/01 11:27:47;;;;;;;;;;;16.70;67.40;;;;;;7322503;19;9197;-58
2024/01/01 11:30:17;;;;;;;;;;;16.80;67.40;;;;;;7320913;19;9256;-58
2024/01/01 11:32:46;;;;;;;;;;;16.80;67.30;;;;;;7323092;19;10231;-58
2024/01/01 11:35:18;;;;;;;;;;;16.70;67.30;;;;;;7322326;19;9449;-57
2024/01/01 11:37:49;;;;;;;;;;;16.80;67.30;;;;;;7322114;19;9733;-58
2024/01/01 11:40:20;;;;;;;;;;;16.70;67.30;;;;;;7322218;19;11593;-58
2024/01/01 11:42:52;;;;;;;;;;;16.70;67.30;;;;;;7320248;19;14471;-57
2024/01/01 11:45:23;;;;;;;;;;;16.70;67.30;;;;;;7321863;19;10713;-57
2024/01/01 11:47:52;;;;;;;;;;;16.70;67.40;;;;;;7320350;19;9212;-58
2024/01/01 11:50:33;;;;;;;;;;;16.70;67.40;;;;;;7322185;19;9431;-58
2024/01/01 11:53:05;;;;;;;;;;;16.60;67.40;;;;;;7320820;19;11015;-57
2024/01/01 11:55:34;;;;;;;;;;;16.60;67.50;;;;;;7320871;19;9288;-58
2024/01/01 11:58:04;;;;;;;;;;;16.60;67.50;;;;;;7321660;19;9463;-58
2024/01/01 12:00:33;;;;;;;;;;;16.50;67.60;;;;;;7321168;19;9229;-57
2024/01/01 12:03:22;;;;;;;;;;;16.50;67.60;;;;;;7319688;19;9558;-58
2024/01/01 12:05:51;;;;;;;;;;;16.50;67.70;;;;;;7321708;19;9590;-58
2024/01/01 12:08:23;;;;;;;;;;;16.40;67.70;;;;;;7322420;19;11461;-57
2024/01/01 12:11:01;;;;;;;;;;;16.40;67.80;;;;;;7320503;19;9468;-57
2024/01/01 12:13:30;;;;;;;;;;;16.40;67.90;;;;;;7321091;19;9222;-58
2024/01/01 12:15:59;;;;;;;;;;;16.40;68.00;;;;;;7321579;19;9500;-58
2024/01/01 12:18:48;;;;;;;;;;;16.30;68.00;;;;;;7319216;19;9482;-58
2024/01/01 12:21:17;;;;;;;;;;;16.30;68.10;;;;;;7321410;19;9213;-57
2024/01/01 12:23:49;;;;;;;;;;;16.30;68.10;;;;;;7320702;19;9616;-58
2024/01/01 12:26:23;;;;;;;;;;;16.20;68.80;;;;;;7319788;19;9476;-56
2024/01/01 12:29:12;;;;;;;;;;;16.20;68.20;;;;;;7321739;19;9273;-57
2024/01/01 12:31:41;;;;;;;;;;;16.20;68.30;;;;;;7320001;19;9263;-57
2024/01/01 12:34:15;;;;;;;;;;;16.20;68.30;;;;;;7320585;19;9312;-57
2024/01/01 12:36:46;;;;;;;;;;;16.10;68.40;;;;;;7319555;19;9435;-58
2024/01/01 12:39:20;;;;;;;;;;;16.10;68.50;;;;;;7319973;19;9638;-58
2024/01/01 12:41:48;;;;;;;;;;;16.10;68.50;;;;;;7320598;19;9664;-57
2024/01/01 12:44:18;;;;;;;;;;;16.00;68.40;;;;;;7326566;19;9329;-57
2024/01/01 12:46:46;;;;;;;;;;;16.00;68.40;;;;;;7327159;19;9471;-57
2024/01/01 12:49:15;;;;;;;;;;;16.00;68.50;;;;;;7325866;19;9415;-57
2024/01/01 12:51:44;;;;;;;;;;;16.00;68.60;;;;;;7327062;19;9557;-57
2024/01/01 12:54:36;;;;;;;;;;;16.00;68.70;;;;;;7325185;19;9429;-57
2024/01/01 12:57:05;;;;;;;;;;;16.00;68.70;;;;;;7327032;19;9576;-57
2024/01/01 12:59:34;;;;;;;;;;;16.00;68.80;;;;;;7326623;19;9579;-57
2024/01/01 13:02:02;;;;;;;;;;;16.00;68.80;;;;;;7326205;19;9221;-57
2024/01/01 13:04:31;;;;;;;;;;;16.00;68.80;;;;;;7327078;19;9705;-57
2024/01/01 13:07:00;;;;;;;;;;;16.00;68.70;;;;;;7326403;19;9247;-57
2024/01/01 13:09:30;;;;;;;;;;;16.00;68.70;;;;;;7326010;19;9422;-57
2024/01/01 13:12:04;;;;;;;;;;;16.10;68.60;;;;;;7326047;19;10186;-57
2024/01/01 13:14:33;;;;;;;;;;;16.20;68.50;;;;;;7326817;19;8972;-57
2024/01/01 13:17:04;;;;;;;;;;;16.20;68.40;;;;;;7326361;19;9479;-57
2024/01/01 13:19:35;;;;;;;;;;;16.30;68.30;;;;;;7326992;19;10660;-57
2024/01/01 13:22:04;;;;;;;;;;;16.40;68.20;;;;;;7326605;19;9770;-57
2024/01/01 13:24:34;;;;;;;;;;;16.40;68.10;;;;;;7326581;19;9211;-57
2024/01/01 13:27:06;;;;;;;;;;;16.40;68.00;;;;;;7325654;19;9193;-57
2024/01/01 13:29:36;;;;;;;;;;;16.50;67.90;;;;;;7325678;19;9222;-57
2024/01/01 13:32:05;;;;;;;;;;;16.60;67.90;;;;;;7325701;19;9636;-57
2024/01/01 13:34:34;;;;;;;;;;;16.60;67.80;;;;;;7324580;19;9733;-57
2024/01/01 13:37:02;;;;;;;;;;;16.70;67.80;;;;;;7325721;19;9499;-57
2024/01/01 13:39:33;;;;;;;;;;;16.70;67.70;;;;;;7324785;19;9467;-57
2024/01/01 13:42:02;;;;;;;;;;;16.80;67.70;;;;;;7326080;19;9470;-57
2024/01/01 13:44:53;;;;;;;;;;;16.80;67.60;;;;;;7323877;19;9445;-57
2024/01/01 13:47:22;;;;;;;;;;;16.80;67.60;;;;;;7324429;19;9241;-57
2024/01/01 13:49:51;;;;;;;;;;;16.80;67.50;;;;;;7325480;19;9476;-57
2024/01/01 13:52:20;;;;;;;;;;;16.80;67.50;;;;;;7323883;19;9470;-57
2024/01/01 13:54:49;;;;;;;;;;;16.80;67.50;;;;;;7324370;19;9245;-57
2024/01/01 13:57:18;;;;;;;;;;;16.80;67.50;;;;;;7323833;19;9286;-57
2024/01/01 13:59:47;;;;;;;;;;;16.70;67.50;;;;;;7325182;19;9258;-57
2024/01/01 14:02:18;;;;;;;;;;;16.80;67.60;;;;;;7323917;19;9642;-57
2024/01/01 14:04:47;;;;;;;;;;;16.80;67.70;;;;;;7325545;19;9442;-57
2024/01/01 14:07:17;;;;;;;;;;;16.70;67.60;;;;;;7323086;19;9540;-57
2024/01/01 14:09:45;;;;;;;;;;;16.70;67.70;;;;;;7324423;19;10450;-57
2024/01/01 14:12:14;;;;;;;;;;;16.70;67.70;;;;;;7323849;19;10688;-57
2024/01/01 14:14:46;;;;;;;;;;;16.70;67.70;;;;;;7325229;19;9474;-57
2024/01/01 14:17:15;;;;;;;;;;;16.60;67.80;;;;;;7323978;19;9274;-57
2024/01/01 14:19:47;;;;;;;;;;;16.60;67.80;;;;;;7324277;19;10450;-57
2024/01/01 14:22:16;;;;;;;;;;;16.60;67.80;;;;;;7323252;19;9155;-57
2024/01/01 14:24:47;;;;;;;;;;;16.60;67.90;;;;;;7325325;19;9532;-57
2024/01/01 14:27:16;;;;;;;;;;;16.60;68.00;;;;;;7325287;19;9466;-57
2024/01/01 14:29:46;;;;;;;;;;;16.50;68.00;;;;;;7323306;19;10208;-57
2024/01/01 14:32:15;;;;;;;;;;;16.40;68.00;;;;;;7324010;19;9505;-57
2024/01/01 14:34:46;;;;;;;;;;;16.50;68.10;;;;;;7323326;19;9238;-58
2024/01/01 14:37:16;;;;;;;;;;;16.50;68.20;;;;;;7323821;19;9661;-57
2024/01/01 14:39:45;;;;;;;;;;;16.40;68.20;;;;;;7323479;19;9848;-57
2024/01/01 14:42:14;;;;;;;;;;;16.40;68.20;;;;;;7323991;19;9512;-57
2024/01/01 14:44:43;;;;;;;;;;;16.40;68.20;;;;;;7323338;19;9595;-57
2024/01/01 14:47:11;;;;;;;;;;;16.40;68.30;;;;;;7323371;19;9423;-57
2024/01/01 14:49:40;;;;;;;;;;;16.30;68.30;;;;;;7323043;19;9558;-57
2024/01/01 14:52:12;;;;;;;;;;;16.30;68.30;;;;;;7323524;19;9178;-57